createdAt,value
2023-03-29T00:00:49.647Z,0.90
2023-03-29T00:03:17.190Z,4.00
2023-03-29T00:05:44.770Z,0.60
2023-03-29T00:08:14.280Z,4.03
2023-03-29T00:10:41.832Z,4.88
2023-03-29T00:13:08.603Z,1.67
2023-03-29T00:15:36.235Z,3.08
2023-03-29T00:18:02.639Z,3.10
2023-03-29T00:20:29.142Z,3.35
2023-03-29T00:22:55.698Z,5.43
2023-03-29T00:25:22.201Z,3.25
2023-03-29T00:27:48.750Z,0.88
2023-03-29T00:30:15.946Z,2.40
2023-03-29T00:32:42.920Z,2.35
2023-03-29T00:35:10.019Z,1.40
2023-03-29T00:37:37.877Z,2.75
2023-03-29T00:40:11.685Z,2.97
2023-03-29T00:42:38.435Z,0.77
2023-03-29T00:45:25.130Z,1.70
2023-03-29T00:47:59.963Z,4.07
2023-03-29T00:50:30.806Z,1.77
2023-03-29T00:53:01.496Z,0.93
2023-03-29T00:55:33.362Z,1.33
2023-03-29T00:58:00.949Z,2.03
2023-03-29T01:00:34.994Z,2.05
2023-03-29T01:03:07.079Z,2.53
2023-03-29T01:05:40.634Z,2.53
2023-03-29T01:08:17.931Z,1.50
2023-03-29T01:11:26.639Z,1.48
2023-03-29T01:13:56.049Z,3.45
2023-03-29T01:16:25.758Z,1.23
2023-03-29T01:18:52.362Z,1.75
2023-03-29T01:21:23.463Z,1.40
2023-03-29T01:23:58.216Z,2.13
2023-03-29T01:26:43.674Z,2.55
2023-03-29T01:29:15.382Z,3.22
2023-03-29T01:31:47.054Z,2.70
2023-03-29T01:34:52.559Z,3.87
2023-03-29T01:37:34.195Z,2.00
2023-03-29T01:40:01.119Z,0.90
2023-03-29T01:42:36.373Z,2.17
2023-03-29T01:45:20.137Z,1.83
2023-03-29T01:48:03.472Z,3.07
2023-03-29T01:50:38.642Z,2.85
2023-03-29T01:53:10.672Z,1.92
2023-03-29T01:55:45.900Z,1.13
2023-03-29T01:58:15.005Z,1.45
2023-03-29T02:00:43.740Z,1.10
2023-03-29T02:03:10.574Z,1.20
2023-03-29T02:05:39.211Z,1.40
2023-03-29T02:08:09.150Z,1.20
2023-03-29T02:10:36.781Z,2.15
2023-03-29T02:13:04.234Z,1.53
2023-03-29T02:15:30.706Z,5.45
2023-03-29T02:17:57.227Z,2.72
2023-03-29T02:20:31.900Z,2.47
2023-03-29T02:23:12.400Z,2.90
2023-03-29T02:25:38.835Z,5.40
2023-03-29T02:28:06.731Z,1.80
2023-03-29T02:31:05.586Z,2.42
2023-03-29T02:33:34.985Z,3.08
2023-03-29T02:36:38.179Z,7.93
2023-03-29T02:39:06.038Z,1.67
2023-03-29T02:41:32.905Z,3.22
2023-03-29T02:44:01.194Z,2.40
2023-03-29T02:46:28.181Z,4.97
2023-03-29T02:48:56.910Z,1.10
2023-03-29T02:51:33.741Z,2.70
2023-03-29T02:54:05.918Z,3.85
2023-03-29T02:56:45.097Z,2.25
2023-03-29T02:59:12.398Z,2.28
2023-03-29T03:01:42.812Z,5.25
2023-03-29T03:04:13.147Z,3.27
2023-03-29T03:06:39.917Z,2.60
2023-03-29T03:09:07.485Z,5.25
2023-03-29T03:11:34.356Z,4.28
2023-03-29T03:14:00.900Z,2.45
2023-03-29T03:16:27.933Z,2.53
2023-03-29T03:18:55.581Z,3.17
2023-03-29T03:21:23.092Z,2.15
2023-03-29T03:23:49.695Z,4.03
2023-03-29T03:26:17.769Z,4.38
2023-03-29T03:28:45.730Z,2.90
2023-03-29T03:31:15.873Z,1.90
2023-03-29T03:33:42.476Z,2.40
2023-03-29T03:36:10.407Z,2.15
2023-03-29T03:38:38.247Z,2.70
2023-03-29T03:41:06.855Z,3.00
2023-03-29T03:43:34.138Z,2.35
2023-03-29T03:46:00.701Z,2.38
2023-03-29T03:48:27.322Z,3.83
2023-03-29T03:50:56.041Z,2.05
2023-03-29T03:53:23.551Z,3.13
2023-03-29T03:55:50.927Z,3.45
2023-03-29T03:58:18.363Z,1.58
2023-03-29T04:00:48.180Z,2.85
2023-03-29T04:03:15.666Z,2.63
2023-03-29T04:05:44.471Z,3.67
2023-03-29T04:08:14.894Z,2.08
2023-03-29T04:10:41.567Z,3.10
2023-03-29T04:13:08.290Z,2.75
2023-03-29T04:15:41.103Z,2.05
2023-03-29T04:18:07.798Z,2.07
2023-03-29T04:20:34.627Z,1.65
2023-03-29T04:23:01.613Z,3.45
2023-03-29T04:25:28.434Z,1.13
2023-03-29T04:27:54.870Z,2.92
2023-03-29T04:30:21.775Z,2.30
2023-03-29T04:32:48.719Z,2.45
2023-03-29T04:35:15.214Z,3.03
2023-03-29T04:37:41.782Z,2.78
2023-03-29T04:40:09.922Z,2.55
2023-03-29T04:42:37.586Z,2.20
2023-03-29T04:45:06.943Z,1.95
2023-03-29T04:47:36.212Z,2.80
2023-03-29T04:50:03.424Z,2.17
2023-03-29T04:52:32.963Z,5.68
2023-03-29T04:55:03.999Z,5.00
2023-03-29T04:57:30.759Z,3.38
2023-03-29T04:59:57.648Z,2.13
2023-03-29T05:02:24.118Z,4.22
2023-03-29T05:04:50.508Z,8.30
2023-03-29T05:07:18.146Z,2.60
2023-03-29T05:09:44.598Z,2.72
2023-03-29T05:12:11.061Z,1.80
2023-03-29T05:14:37.401Z,1.60
2023-03-29T05:17:04.986Z,5.25
2023-03-29T05:19:31.908Z,4.50
2023-03-29T05:21:59.087Z,2.35
2023-03-29T05:24:25.718Z,3.03
2023-03-29T05:26:52.274Z,2.08
2023-03-29T05:29:19.067Z,2.42
2023-03-29T05:31:46.821Z,3.17
2023-03-29T05:34:13.325Z,1.58
2023-03-29T05:36:39.749Z,2.30
2023-03-29T05:39:06.775Z,5.28
2023-03-29T05:41:33.626Z,2.08
2023-03-29T05:44:00.054Z,1.90
2023-03-29T05:46:26.972Z,7.93
2023-03-29T05:48:53.553Z,4.28
2023-03-29T05:51:24.467Z,1.23
2023-03-29T05:53:51.488Z,1.85
2023-03-29T05:56:18.897Z,3.93
2023-03-29T05:58:50.941Z,3.33
2023-03-29T06:01:18.203Z,5.85
2023-03-29T06:03:46.215Z,2.08
2023-03-29T06:06:16.092Z,2.95
2023-03-29T06:08:43.457Z,1.60
2023-03-29T06:11:11.495Z,4.40
2023-03-29T06:13:38.808Z,2.28
2023-03-29T06:16:06.376Z,2.13
2023-03-29T06:18:33.412Z,3.15
2023-03-29T06:21:02.000Z,3.57
2023-03-29T06:23:29.256Z,3.10
2023-03-29T06:25:56.464Z,1.95
2023-03-29T06:28:23.943Z,7.82
2023-03-29T06:30:50.570Z,4.88
2023-03-29T06:33:17.226Z,6.97
2023-03-29T06:35:47.499Z,2.75
2023-03-29T06:38:15.083Z,2.78
2023-03-29T06:40:43.194Z,2.60
2023-03-29T06:43:10.275Z,2.80
2023-03-29T06:45:38.566Z,1.93
2023-03-29T06:48:06.267Z,3.95
2023-03-29T06:50:33.020Z,4.50
2023-03-29T06:52:59.641Z,3.55
2023-03-29T06:55:27.098Z,5.18
2023-03-29T06:57:54.648Z,3.37
2023-03-29T07:00:39.364Z,2.00
2023-03-29T07:03:09.651Z,2.40
2023-03-29T07:05:37.157Z,2.33
2023-03-29T07:08:06.417Z,4.05
2023-03-29T07:10:38.304Z,1.70
2023-03-29T07:13:11.006Z,2.78
2023-03-29T07:15:37.593Z,2.53
2023-03-29T07:18:04.641Z,3.28
2023-03-29T07:20:32.046Z,5.50
2023-03-29T07:22:58.412Z,3.63
2023-03-29T07:25:26.140Z,5.40
2023-03-29T07:27:52.948Z,2.95
2023-03-29T07:30:23.235Z,5.07
2023-03-29T07:32:51.075Z,4.70
2023-03-29T07:35:18.421Z,4.40
2023-03-29T07:37:46.326Z,2.78
2023-03-29T07:40:18.694Z,5.50
2023-03-29T07:42:46.592Z,3.20
2023-03-29T07:45:16.348Z,4.22
2023-03-29T07:47:47.503Z,3.67
2023-03-29T07:50:14.554Z,4.75
2023-03-29T07:52:41.094Z,3.97
2023-03-29T07:55:10.277Z,5.40
2023-03-29T07:57:36.870Z,7.13
2023-03-29T08:00:16.972Z,4.50
2023-03-29T08:02:45.699Z,5.18
2023-03-29T08:05:14.132Z,3.80
2023-03-29T08:07:42.317Z,2.95
2023-03-29T08:10:11.542Z,10.65
2023-03-29T08:12:38.041Z,8.70
2023-03-29T08:15:05.490Z,3.00
2023-03-29T08:17:33.117Z,4.03
2023-03-29T08:19:59.587Z,5.68
2023-03-29T08:22:26.098Z,5.88
2023-03-29T08:24:52.870Z,4.90
2023-03-29T08:27:19.796Z,8.25
2023-03-29T08:29:46.609Z,6.65
2023-03-29T08:32:12.996Z,7.22
2023-03-29T08:34:39.378Z,5.05
2023-03-29T08:37:05.757Z,4.20
2023-03-29T08:39:32.488Z,8.65
2023-03-29T08:42:08.850Z,5.82
2023-03-29T08:44:54.517Z,5.10
2023-03-29T08:47:36.586Z,9.13
2023-03-29T08:50:03.207Z,7.00
2023-03-29T08:52:42.888Z,9.10
2023-03-29T08:55:24.460Z,7.50
2023-03-29T08:57:51.788Z,9.35
2023-03-29T09:00:24.389Z,7.93
2023-03-29T09:02:53.855Z,6.53
2023-03-29T09:05:27.336Z,5.55
2023-03-29T09:07:54.433Z,7.30
2023-03-29T09:10:28.043Z,5.97
2023-03-29T09:13:30.226Z,9.57
2023-03-29T09:16:32.999Z,6.30
2023-03-29T09:19:06.255Z,7.20
2023-03-29T09:21:55.896Z,5.57
2023-03-29T09:24:54.142Z,4.53
2023-03-29T09:27:27.417Z,5.95
2023-03-29T09:30:07.128Z,5.77
2023-03-29T09:32:51.313Z,5.43
2023-03-29T09:35:33.353Z,5.82
2023-03-29T09:38:00.647Z,4.70
2023-03-29T09:40:37.874Z,6.40
2023-03-29T09:43:13.646Z,7.03
2023-03-29T09:45:41.124Z,4.72
2023-03-29T09:48:15.428Z,11.70
2023-03-29T09:50:47.490Z,5.18
2023-03-29T09:53:18.672Z,6.05
2023-03-29T09:55:49.078Z,6.33
2023-03-29T09:58:20.378Z,5.88
2023-03-29T10:00:48.249Z,7.22
2023-03-29T10:03:29.597Z,4.72
2023-03-29T10:05:59.896Z,5.68
2023-03-29T10:08:35.875Z,6.63
2023-03-29T10:11:09.581Z,5.40
2023-03-29T10:13:50.897Z,9.73
2023-03-29T10:16:41.482Z,5.65
2023-03-29T10:19:22.328Z,5.85
2023-03-29T10:21:50.357Z,6.73
2023-03-29T10:24:24.588Z,5.88
2023-03-29T10:26:56.245Z,4.50
2023-03-29T10:29:24.584Z,7.68
2023-03-29T10:31:51.793Z,6.47
2023-03-29T10:34:18.868Z,8.00
2023-03-29T10:36:55.606Z,5.20
2023-03-29T10:39:22.979Z,6.88
2023-03-29T10:41:52.421Z,4.97
2023-03-29T10:44:34.220Z,9.32
2023-03-29T10:47:16.998Z,7.43
2023-03-29T10:49:47.801Z,9.23
2023-03-29T10:52:16.420Z,10.82
2023-03-29T10:54:43.684Z,7.97
2023-03-29T10:57:15.792Z,8.13
2023-03-29T10:59:52.965Z,9.87
2023-03-29T11:02:30.249Z,6.68
2023-03-29T11:05:19.233Z,9.30
2023-03-29T11:07:51.889Z,6.32
2023-03-29T11:10:36.531Z,6.80
2023-03-29T11:13:40.833Z,11.47
2023-03-29T11:16:45.223Z,6.05
2023-03-29T11:19:49.275Z,6.97
2023-03-29T11:22:21.770Z,7.70
2023-03-29T11:25:11.458Z,6.95
2023-03-29T11:27:44.909Z,8.83
2023-03-29T11:30:25.778Z,9.80
2023-03-29T11:33:24.127Z,6.60
2023-03-29T11:36:01.822Z,9.10
2023-03-29T11:38:59.372Z,6.93
2023-03-29T11:41:30.412Z,6.27
2023-03-29T11:44:10.298Z,7.38
2023-03-29T11:46:44.132Z,7.82
2023-03-29T11:49:32.194Z,5.55
2023-03-29T11:52:20.007Z,7.00
2023-03-29T11:54:55.547Z,5.67
2023-03-29T11:57:37.009Z,6.40
2023-03-29T12:00:12.845Z,5.85
2023-03-29T12:02:44.398Z,5.22
2023-03-29T12:05:24.403Z,10.25
2023-03-29T12:07:56.080Z,6.27
2023-03-29T12:10:29.019Z,9.98
2023-03-29T12:13:00.939Z,11.23
2023-03-29T12:15:33.540Z,11.60
2023-03-29T12:18:20.002Z,9.30
2023-03-29T12:20:52.176Z,8.23
2023-03-29T12:23:19.169Z,10.52
2023-03-29T12:26:04.092Z,12.07
2023-03-29T12:28:55.451Z,10.13
2023-03-29T12:31:42.372Z,7.78
2023-03-29T12:34:36.251Z,11.20
2023-03-29T12:37:14.652Z,8.82
2023-03-29T12:39:41.304Z,8.48
2023-03-29T12:42:16.939Z,8.80
2023-03-29T12:44:51.972Z,9.57
2023-03-29T12:47:25.234Z,10.67
2023-03-29T12:49:58.099Z,15.38
2023-03-29T12:52:30.418Z,12.82
2023-03-29T12:55:25.233Z,12.20
2023-03-29T12:58:05.060Z,16.13
2023-03-29T13:00:40.220Z,13.80
2023-03-29T13:03:27.585Z,12.27
2023-03-29T13:06:03.456Z,14.38
2023-03-29T13:08:39.939Z,15.80
2023-03-29T13:11:31.445Z,15.38
2023-03-29T13:14:01.408Z,12.37
2023-03-29T13:16:34.879Z,10.60
2023-03-29T13:19:09.656Z,11.60
2023-03-29T13:22:10.409Z,9.02
2023-03-29T13:24:55.619Z,10.32
2023-03-29T13:27:31.677Z,9.97
2023-03-29T13:30:11.546Z,8.50
2023-03-29T13:32:47.205Z,9.13
2023-03-29T13:35:41.314Z,8.55
2023-03-29T13:38:18.769Z,8.60
2023-03-29T13:40:54.359Z,13.57
2023-03-29T13:43:51.638Z,9.80
2023-03-29T13:46:23.239Z,13.18
2023-03-29T13:48:54.555Z,14.27
2023-03-29T13:51:27.958Z,10.07
2023-03-29T13:54:01.453Z,9.40
2023-03-29T13:56:43.177Z,7.50
2023-03-29T13:59:11.819Z,10.25
2023-03-29T14:01:54.520Z,8.90
2023-03-29T14:04:25.226Z,12.88
2023-03-29T14:06:54.383Z,14.23
2023-03-29T14:09:30.049Z,8.90
2023-03-29T14:11:58.779Z,10.30
2023-03-29T14:14:27.879Z,10.43
2023-03-29T14:16:56.259Z,13.07
2023-03-29T14:19:34.409Z,9.90
2023-03-29T14:22:02.306Z,7.75
2023-03-29T14:24:37.659Z,7.30
2023-03-29T14:27:06.894Z,7.47
2023-03-29T14:29:34.201Z,8.02
2023-03-29T14:32:11.847Z,7.40
2023-03-29T14:34:39.575Z,7.22
2023-03-29T14:37:08.911Z,6.97
2023-03-29T14:39:35.973Z,12.77
2023-03-29T14:42:02.656Z,9.30
2023-03-29T14:44:33.015Z,7.63
2023-03-29T14:47:01.427Z,9.82
2023-03-29T14:49:28.026Z,11.00
2023-03-29T14:51:55.635Z,6.55
2023-03-29T14:54:32.657Z,6.10
2023-03-29T14:57:03.278Z,5.30
2023-03-29T14:59:41.656Z,5.88
2023-03-29T15:02:23.305Z,5.20
2023-03-29T15:05:25.434Z,4.95
2023-03-29T15:07:55.809Z,5.80
2023-03-29T15:10:22.439Z,6.20
2023-03-29T15:12:50.068Z,4.97
2023-03-29T15:15:16.971Z,5.13
2023-03-29T15:17:51.827Z,6.15
2023-03-29T15:20:25.589Z,7.32
2023-03-29T15:22:59.286Z,7.17
2023-03-29T15:25:47.562Z,4.63
2023-03-29T15:28:27.625Z,5.50
2023-03-29T15:31:07.254Z,5.30
2023-03-29T15:33:38.228Z,5.78
2023-03-29T15:36:06.865Z,5.47
2023-03-29T15:38:43.120Z,3.55
2023-03-29T15:41:10.831Z,4.07
2023-03-29T15:43:37.480Z,6.50
2023-03-29T15:46:04.338Z,3.10
2023-03-29T15:48:33.820Z,6.10
2023-03-29T15:51:05.516Z,5.60
2023-03-29T15:53:33.196Z,2.97
2023-03-29T15:56:02.148Z,3.63
2023-03-29T15:58:33.543Z,3.42
2023-03-29T16:01:11.163Z,6.50
2023-03-29T16:03:38.482Z,4.20
2023-03-29T16:06:05.425Z,2.83
2023-03-29T16:08:32.058Z,4.78
2023-03-29T16:10:58.364Z,4.28
2023-03-29T16:13:24.717Z,3.10
2023-03-29T16:15:51.045Z,3.95
2023-03-29T16:18:17.399Z,4.07
2023-03-29T16:20:43.815Z,3.00
2023-03-29T16:23:11.438Z,2.22
2023-03-29T16:25:39.769Z,1.90
2023-03-29T16:28:08.909Z,3.25
2023-03-29T16:30:36.675Z,2.95
2023-03-29T16:33:06.308Z,3.13
2023-03-29T16:35:35.433Z,2.45
2023-03-29T16:38:01.884Z,2.30
2023-03-29T16:40:28.347Z,5.45
2023-03-29T16:42:54.808Z,3.97
2023-03-29T16:45:21.314Z,2.95
2023-03-29T16:47:47.904Z,3.72
2023-03-29T16:50:17.894Z,2.87
2023-03-29T16:52:46.101Z,7.85
2023-03-29T16:55:13.592Z,3.70
2023-03-29T16:57:40.154Z,3.33
2023-03-29T17:00:12.241Z,2.58
2023-03-29T17:02:38.699Z,3.37
2023-03-29T17:05:06.061Z,7.10
2023-03-29T17:07:33.528Z,3.05
2023-03-29T17:10:00.158Z,2.70
2023-03-29T17:12:26.821Z,4.43
2023-03-29T17:14:53.148Z,3.17
2023-03-29T17:17:19.640Z,2.53
2023-03-29T17:19:46.173Z,4.70
2023-03-29T17:22:12.584Z,5.05
2023-03-29T17:24:38.970Z,3.58
2023-03-29T17:27:05.293Z,3.27
2023-03-29T17:29:31.807Z,2.38
2023-03-29T17:31:58.393Z,5.78
2023-03-29T17:34:27.026Z,5.45
2023-03-29T17:36:54.015Z,3.05
2023-03-29T17:39:20.445Z,3.60
2023-03-29T17:41:47.320Z,4.10
2023-03-29T17:44:13.896Z,5.72
2023-03-29T17:46:40.257Z,3.75
2023-03-29T17:49:06.625Z,4.88
2023-03-29T17:51:32.974Z,4.37
2023-03-29T17:53:59.333Z,5.68
2023-03-29T17:56:26.536Z,6.82
2023-03-29T17:58:53.423Z,3.80
2023-03-29T18:01:20.348Z,6.70
2023-03-29T18:03:48.289Z,6.17
2023-03-29T18:06:17.995Z,2.92
2023-03-29T18:08:44.740Z,4.85
2023-03-29T18:11:22.296Z,3.25
2023-03-29T18:13:49.777Z,4.57
2023-03-29T18:16:16.374Z,7.00
2023-03-29T18:18:43.655Z,3.67
2023-03-29T18:21:10.816Z,6.35
2023-03-29T18:23:39.830Z,4.80
2023-03-29T18:26:07.334Z,5.57
2023-03-29T18:28:34.898Z,5.67
2023-03-29T18:31:01.278Z,5.97
2023-03-29T18:33:30.123Z,7.03
2023-03-29T18:35:56.510Z,7.82
2023-03-29T18:38:22.942Z,6.93
2023-03-29T18:40:50.416Z,4.50
2023-03-29T18:43:17.050Z,4.95
2023-03-29T18:45:44.398Z,3.45
2023-03-29T18:48:11.079Z,8.27
2023-03-29T18:50:38.672Z,5.00
2023-03-29T18:53:05.271Z,5.40
2023-03-29T18:55:31.641Z,5.80
2023-03-29T18:57:58.004Z,5.68
2023-03-29T19:00:24.471Z,2.92
2023-03-29T19:02:51.054Z,3.47
2023-03-29T19:05:17.624Z,3.97
2023-03-29T19:07:44.297Z,3.30
2023-03-29T19:10:12.042Z,8.50
2023-03-29T19:12:38.568Z,2.25
2023-03-29T19:15:05.641Z,5.22
2023-03-29T19:17:32.178Z,4.93
2023-03-29T19:19:58.800Z,2.90
2023-03-29T19:22:25.240Z,3.72
2023-03-29T19:24:51.577Z,6.97
2023-03-29T19:27:18.448Z,9.85
2023-03-29T19:29:44.828Z,2.83
2023-03-29T19:32:11.225Z,2.83
2023-03-29T19:34:37.572Z,4.47
2023-03-29T19:37:03.978Z,3.90
2023-03-29T19:39:30.476Z,3.78
2023-03-29T19:41:56.914Z,4.37
2023-03-29T19:44:23.566Z,2.33
2023-03-29T19:46:51.200Z,9.10
2023-03-29T19:49:17.642Z,3.40
2023-03-29T19:51:44.185Z,2.80
2023-03-29T19:54:13.732Z,2.73
2023-03-29T19:56:42.825Z,2.70
2023-03-29T19:59:11.113Z,2.83
2023-03-29T20:01:39.034Z,3.33
2023-03-29T20:04:05.571Z,10.85
2023-03-29T20:06:31.985Z,5.57
2023-03-29T20:08:58.811Z,5.95
2023-03-29T20:11:25.568Z,6.03
2023-03-29T20:13:52.270Z,3.53
2023-03-29T20:16:19.200Z,6.43
2023-03-29T20:18:46.481Z,4.23
2023-03-29T20:21:16.207Z,6.45
2023-03-29T20:23:42.710Z,8.27
2023-03-29T20:26:09.104Z,8.18
2023-03-29T20:28:37.529Z,9.88
2023-03-29T20:31:06.198Z,12.23
2023-03-29T20:33:33.488Z,9.20
2023-03-29T20:36:00.000Z,6.50
2023-03-29T20:38:26.600Z,9.40
2023-03-29T20:40:53.538Z,5.47
2023-03-29T20:43:20.179Z,4.47
2023-03-29T20:45:53.440Z,5.75
2023-03-29T20:48:22.820Z,5.35
2023-03-29T20:50:49.454Z,4.20
2023-03-29T20:53:16.361Z,5.82
2023-03-29T20:55:42.778Z,6.37
2023-03-29T20:58:09.421Z,5.25
2023-03-29T21:00:37.614Z,6.43
2023-03-29T21:03:04.206Z,4.88
2023-03-29T21:05:32.912Z,4.00
2023-03-29T21:07:59.966Z,3.40
2023-03-29T21:10:27.353Z,7.00
2023-03-29T21:12:54.281Z,4.13
2023-03-29T21:15:20.959Z,5.00
2023-03-29T21:17:47.552Z,4.05
2023-03-29T21:20:15.189Z,6.00
2023-03-29T21:22:45.540Z,3.63
2023-03-29T21:25:15.502Z,5.57
2023-03-29T21:27:42.099Z,4.50
2023-03-29T21:30:09.853Z,7.85
2023-03-29T21:32:36.611Z,5.37
2023-03-29T21:35:03.184Z,8.50
2023-03-29T21:37:29.559Z,4.25
2023-03-29T21:39:55.909Z,5.43
2023-03-29T21:42:22.257Z,3.95
2023-03-29T21:44:48.592Z,5.10
2023-03-29T21:47:14.961Z,4.32
2023-03-29T21:49:41.646Z,3.03
2023-03-29T21:52:08.023Z,6.22
2023-03-29T21:54:34.410Z,5.32
2023-03-29T21:57:01.198Z,3.23
2023-03-29T21:59:27.929Z,7.47
2023-03-29T22:01:54.344Z,5.78
2023-03-29T22:04:35.331Z,3.60
2023-03-29T22:07:03.060Z,7.25
2023-03-29T22:09:29.605Z,4.40
2023-03-29T22:11:56.770Z,7.57
2023-03-29T22:14:23.183Z,7.03
2023-03-29T22:16:49.567Z,3.17
2023-03-29T22:19:16.024Z,4.63
2023-03-29T22:21:42.495Z,3.87
2023-03-29T22:24:08.839Z,3.80
2023-03-29T22:26:35.466Z,3.30
2023-03-29T22:29:02.768Z,5.60
2023-03-29T22:31:31.244Z,3.03
2023-03-29T22:33:58.482Z,3.10
2023-03-29T22:36:27.600Z,5.47
2023-03-29T22:38:54.936Z,7.40
2023-03-29T22:41:23.780Z,5.40
2023-03-29T22:43:52.483Z,4.30
2023-03-29T22:46:19.898Z,8.60
2023-03-29T22:48:46.718Z,8.20
2023-03-29T22:51:13.219Z,3.28
2023-03-29T22:53:39.580Z,4.53
2023-03-29T22:56:07.447Z,5.20
2023-03-29T22:58:33.901Z,6.43
2023-03-29T23:01:00.423Z,3.65
2023-03-29T23:03:26.924Z,5.75
2023-03-29T23:05:55.668Z,2.65
2023-03-29T23:08:26.120Z,3.53
2023-03-29T23:10:52.753Z,5.40
2023-03-29T23:13:24.006Z,6.38
2023-03-29T23:15:50.792Z,5.88
2023-03-29T23:18:20.902Z,6.22
2023-03-29T23:20:48.980Z,4.18
2023-03-29T23:23:17.017Z,5.40
2023-03-29T23:25:45.571Z,5.30
2023-03-29T23:28:12.654Z,7.00
2023-03-29T23:30:39.431Z,4.50
2023-03-29T23:33:06.833Z,6.28
2023-03-29T23:35:33.441Z,3.60
2023-03-29T23:37:59.801Z,2.55
2023-03-29T23:40:27.665Z,3.72
2023-03-29T23:42:59.367Z,6.28
2023-03-29T23:45:29.284Z,2.88
2023-03-29T23:47:56.990Z,4.43
2023-03-29T23:50:23.703Z,4.55
2023-03-29T23:52:51.492Z,4.10
2023-03-29T23:55:18.435Z,2.78
2023-03-29T23:57:44.862Z,4.25
